Аэропорт: Полярный. Удачный

ICAO: UERP

METAR:
Информация по данной станции не доступна
METAR:
2019-09-21 14:00:00
TAF UERP 211400Z 2115/2215 25005G10MPS 9999 BKN020CB OVC100 TEMPO 2115/2118 2100 -SHRA BR BKN005 OVC015CB